Irini — SV4194 — position and weather

sailwx.info

Track history (hours):
 
Tides and Currents Weather Stations Pressure Air Temp Water Temp Dewpoint Dewpoint Depression Visibility Wind Speed Wind Dir Waves Ship Positions

Irini

Last reported at 2018-Feb-24 04:07 UTC. Time now 2018-Feb-25 14:06 UTC.
Position N 36°59' E 025°21'.

Length 63 m; draft 4 m.

Type: Cargo ship. MMSI: 237087500.

Date/timePositionNaut miles runAvg speedWind from/ knotsBaromVisibWave heightAir tempDewpointWater temp
2018-Feb-24 04:07N 36°59' E 025°21'1 7.0
2018-Feb-24 04:00N 36°60' E 025°20'3 6.8
2018-Feb-24 03:30N 37°03' E 025°18'3 7.0
2018-Feb-24 03:00N 37°06' E 025°18'4 7.4
2018-Feb-24 02:31N 37°10' E 025°19'4 7.0
2018-Feb-24 02:00N 37°13' E 025°16'4 7.2
2018-Feb-24 01:30N 37°14' E 025°12'4 7.2
2018-Feb-24 01:00N 37°16' E 025°08'4 7.3
2018-Feb-24 00:30N 37°17' E 025°04'4 7.5
2018-Feb-24 00:01N 37°19' E 024°60'4 7.4
2018-Feb-23 23:30N 37°20' E 024°55'4 7.4
2018-Feb-23 23:01N 37°22' E 024°51'4 7.2
2018-Feb-23 22:31N 37°23' E 024°47'11 0.3
2018-Feb-22 12:30N 37°29' E 024°58'4 7.7
2018-Feb-22 12:00N 37°25' E 025°00'4 7.7
2018-Feb-22 11:30N 37°22' E 025°02'15 7.8
2018-Feb-22 09:35N 37°07' E 025°07'1 8.2
2018-Feb-22 09:30N 37°07' E 025°07'5 0.3
2018-Feb-21 19:07N 37°09' E 025°12'1 7.6
2018-Feb-21 18:59N 37°09' E 025°13'4 7.8
2018-Feb-21 18:31N 37°10' E 025°17'4 7.9
2018-Feb-21 18:01N 37°11' E 025°22'4 8.0
2018-Feb-21 17:30N 37°12' E 025°27'9 7.5
2018-Feb-21 16:22N 37°10' E 025°37'  
2018-Feb-19 09:01N 37°10' E 025°48'0 7.2
2018-Feb-19 09:00N 37°10' E 025°48'3 7.0
2018-Feb-19 08:30N 37°12' E 025°44'4 7.1
2018-Feb-19 08:00N 37°14' E 025°40'4 7.0
2018-Feb-19 07:26N 37°16' E 025°36'3 6.8
2018-Feb-19 07:00N 37°17' E 025°32'3 7.0
2018-Feb-19 06:30N 37°19' E 025°29'4 7.3
2018-Feb-19 06:00N 37°21' E 025°25'4 7.5
2018-Feb-19 05:31N 37°23' E 025°21'4 7.7
2018-Feb-19 05:00N 37°25' E 025°17'4 7.2
2018-Feb-19 04:30N 37°28' E 025°14'4 7.4
2018-Feb-19 04:00N 37°30' E 025°10'4 7.2
2018-Feb-19 03:30N 37°32' E 025°06'4 7.2
2018-Feb-19 03:00N 37°34' E 025°03'4 7.4
2018-Feb-19 02:30N 37°37' E 024°60'10 7.1
2018-Feb-19 01:09N 37°44' E 024°51'8 0.6
2018-Feb-18 11:21N 37°37' E 024°46'3 8.1
2018-Feb-18 11:00N 37°35' E 024°46'4 8.0
2018-Feb-18 10:30N 37°31' E 024°47'4 7.9
2018-Feb-18 10:00N 37°27' E 024°49'4 7.9
2018-Feb-18 09:30N 37°23' E 024°51'4 8.0
2018-Feb-18 09:00N 37°19' E 024°52'  
2018-Feb-15 18:16N 37°03' E 025°03'2 7.5
2018-Feb-15 18:01N 37°04' E 025°04'3 0.7
2018-Feb-15 13:17N 37°05' E 025°08'5 6.0
2018-Feb-15 12:28N 37°10' E 025°10'3 6.7
2018-Feb-15 12:00N 37°13' E 025°11'3 6.8
2018-Feb-15 11:30N 37°16' E 025°11'3 6.5
2018-Feb-15 11:00N 37°19' E 025°11'3 6.1
2018-Feb-15 10:30N 37°22' E 025°10'3 5.9
2018-Feb-15 10:00N 37°25' E 025°10'3 6.7
2018-Feb-15 09:30N 37°29' E 025°09'3 6.4
2018-Feb-15 09:00N 37°32' E 025°09'0 0.9
2018-Feb-15 08:30N 37°32' E 025°09'0 0.0
2018-Feb-15 07:57N 37°32' E 025°09'0 0.0
2018-Feb-15 07:27N 37°32' E 025°09'0 0.0
2018-Feb-15 06:57N 37°32' E 025°09'1 3.1
2018-Feb-15 06:30N 37°31' E 025°10'4 8.0
2018-Feb-15 06:01N 37°27' E 025°12'2 3.0
2018-Feb-15 05:30N 37°26' E 025°13'0 0.0
2018-Feb-15 05:00N 37°26' E 025°13'0 0.1
2018-Feb-15 04:30N 37°26' E 025°13'0 0.0
2018-Feb-15 04:00N 37°26' E 025°13'0 0.0
2018-Feb-15 03:30N 37°26' E 025°13'0 0.0
2018-Feb-15 03:00N 37°26' E 025°13'0 0.0
2018-Feb-15 02:30N 37°26' E 025°13'0 0.0
2018-Feb-15 02:00N 37°26' E 025°13'0 0.0
2018-Feb-15 01:30N 37°26' E 025°13'0 0.0
2018-Feb-15 01:00N 37°26' E 025°13'0 0.0
2018-Feb-15 00:30N 37°26' E 025°13'0 0.0
2018-Feb-15 00:00N 37°26' E 025°13'0 0.0
2018-Feb-14 23:30N 37°26' E 025°13'0 0.0
2018-Feb-14 23:00N 37°26' E 025°13'0 0.0
2018-Feb-14 22:30N 37°26' E 025°13'0 0.0
2018-Feb-14 21:57N 37°26' E 025°13'0 0.0
2018-Feb-14 21:30N 37°26' E 025°13'0 0.0
2018-Feb-14 21:00N 37°26' E 025°13'0 0.0
2018-Feb-14 20:30N 37°26' E 025°13'0 0.0
2018-Feb-14 20:00N 37°26' E 025°13'0 0.0
2018-Feb-14 19:30N 37°26' E 025°13'0 0.0
2018-Feb-14 19:00N 37°26' E 025°13'0 0.0
2018-Feb-14 18:30N 37°26' E 025°13'0 0.0
2018-Feb-14 18:00N 37°26' E 025°13'0 0.0
2018-Feb-14 17:30N 37°26' E 025°13'0 0.0
2018-Feb-14 16:57N 37°26' E 025°13'0 0.0
2018-Feb-14 16:27N 37°26' E 025°13'0 0.0
2018-Feb-14 16:00N 37°26' E 025°13'0 0.0
2018-Feb-14 15:30N 37°26' E 025°13'0 0.0
2018-Feb-14 15:00N 37°26' E 025°13'0 0.0
2018-Feb-14 14:30N 37°26' E 025°13'0 0.0
2018-Feb-14 14:00N 37°26' E 025°13'0 0.0
2018-Feb-14 13:30N 37°26' E 025°13'0 0.0
2018-Feb-14 13:00N 37°26' E 025°13'0 0.0
2018-Feb-14 12:30N 37°26' E 025°13'0 0.0
2018-Feb-14 12:00N 37°26' E 025°13'0 0.0
2018-Feb-14 11:30N 37°26' E 025°13'0 0.0
2018-Feb-14 11:00N 37°26' E 025°13'0 0.0
2018-Feb-14 10:30N 37°26' E 025°13'0 0.0
2018-Feb-14 10:00N 37°26' E 025°13'0 0.0
2018-Feb-14 09:30N 37°26' E 025°13'0 0.0
2018-Feb-14 09:00N 37°26' E 025°13'0 0.0
2018-Feb-14 08:30N 37°26' E 025°13'0 0.0
2018-Feb-14 08:00N 37°26' E 025°13'0 0.0
2018-Feb-14 07:30N 37°26' E 025°13'0 0.0
2018-Feb-14 07:00N 37°26' E 025°13'0 0.0
2018-Feb-14 06:21N 37°26' E 025°13'0 0.0
2018-Feb-14 06:00N 37°26' E 025°13'0 0.0
2018-Feb-14 05:30N 37°26' E 025°13'0 0.0
2018-Feb-14 05:00N 37°26' E 025°13'0 0.0
2018-Feb-14 04:30N 37°26' E 025°13'  
Track history (hours):
 
Tides and Currents Weather Stations Pressure Air Temp Water Temp Dewpoint Dewpoint Depression Visibility Wind Speed Wind Dir Waves Ship Positions

Irini

Last reported at 2018-Feb-24 04:07 UTC. Time now 2018-Feb-25 14:06 UTC.
Position N 36°59' E 025°21'.

Length 63 m; draft 4 m.

Type: Cargo ship. MMSI: 237087500.

Date/timePositionNaut miles runAvg speedWind from/ knotsBaromVisibWave heightAir tempDewpointWater temp
2018-Feb-24 04:07N 36°59' E 025°21'1 7.0
2018-Feb-24 04:00N 36°60' E 025°20'3 6.8
2018-Feb-24 03:30N 37°03' E 025°18'3 7.0
2018-Feb-24 03:00N 37°06' E 025°18'4 7.4
2018-Feb-24 02:31N 37°10' E 025°19'4 7.0
2018-Feb-24 02:00N 37°13' E 025°16'4 7.2
2018-Feb-24 01:30N 37°14' E 025°12'4 7.2
2018-Feb-24 01:00N 37°16' E 025°08'4 7.3
2018-Feb-24 00:30N 37°17' E 025°04'4 7.5
2018-Feb-24 00:01N 37°19' E 024°60'4 7.4
2018-Feb-23 23:30N 37°20' E 024°55'4 7.4
2018-Feb-23 23:01N 37°22' E 024°51'4 7.2
2018-Feb-23 22:31N 37°23' E 024°47'11 0.3
2018-Feb-22 12:30N 37°29' E 024°58'4 7.7
2018-Feb-22 12:00N 37°25' E 025°00'4 7.7
2018-Feb-22 11:30N 37°22' E 025°02'15 7.8
2018-Feb-22 09:35N 37°07' E 025°07'1 8.2
2018-Feb-22 09:30N 37°07' E 025°07'5 0.3
2018-Feb-21 19:07N 37°09' E 025°12'1 7.6
2018-Feb-21 18:59N 37°09' E 025°13'4 7.8
2018-Feb-21 18:31N 37°10' E 025°17'4 7.9
2018-Feb-21 18:01N 37°11' E 025°22'4 8.0
2018-Feb-21 17:30N 37°12' E 025°27'9 7.5
2018-Feb-21 16:22N 37°10' E 025°37'  
2018-Feb-19 09:01N 37°10' E 025°48'0 7.2
2018-Feb-19 09:00N 37°10' E 025°48'3 7.0
2018-Feb-19 08:30N 37°12' E 025°44'4 7.1
2018-Feb-19 08:00N 37°14' E 025°40'4 7.0
2018-Feb-19 07:26N 37°16' E 025°36'3 6.8
2018-Feb-19 07:00N 37°17' E 025°32'3 7.0
2018-Feb-19 06:30N 37°19' E 025°29'4 7.3
2018-Feb-19 06:00N 37°21' E 025°25'4 7.5
2018-Feb-19 05:31N 37°23' E 025°21'4 7.7
2018-Feb-19 05:00N 37°25' E 025°17'4 7.2
2018-Feb-19 04:30N 37°28' E 025°14'4 7.4
2018-Feb-19 04:00N 37°30' E 025°10'4 7.2
2018-Feb-19 03:30N 37°32' E 025°06'4 7.2
2018-Feb-19 03:00N 37°34' E 025°03'4 7.4
2018-Feb-19 02:30N 37°37' E 024°60'10 7.1
2018-Feb-19 01:09N 37°44' E 024°51'8 0.6
2018-Feb-18 11:21N 37°37' E 024°46'3 8.1
2018-Feb-18 11:00N 37°35' E 024°46'4 8.0
2018-Feb-18 10:30N 37°31' E 024°47'4 7.9
2018-Feb-18 10:00N 37°27' E 024°49'4 7.9
2018-Feb-18 09:30N 37°23' E 024°51'4 8.0
2018-Feb-18 09:00N 37°19' E 024°52'  
2018-Feb-15 18:16N 37°03' E 025°03'2 7.5
2018-Feb-15 18:01N 37°04' E 025°04'3 0.7
2018-Feb-15 13:17N 37°05' E 025°08'5 6.0
2018-Feb-15 12:28N 37°10' E 025°10'3 6.7
2018-Feb-15 12:00N 37°13' E 025°11'3 6.8
2018-Feb-15 11:30N 37°16' E 025°11'3 6.5
2018-Feb-15 11:00N 37°19' E 025°11'3 6.1
2018-Feb-15 10:30N 37°22' E 025°10'3 5.9
2018-Feb-15 10:00N 37°25' E 025°10'3 6.7
2018-Feb-15 09:30N 37°29' E 025°09'3 6.4
2018-Feb-15 09:00N 37°32' E 025°09'0 0.9
2018-Feb-15 08:30N 37°32' E 025°09'0 0.0
2018-Feb-15 07:57N 37°32' E 025°09'0 0.0
2018-Feb-15 07:27N 37°32' E 025°09'0 0.0
2018-Feb-15 06:57N 37°32' E 025°09'1 3.1
2018-Feb-15 06:30N 37°31' E 025°10'4 8.0
2018-Feb-15 06:01N 37°27' E 025°12'2 3.0
2018-Feb-15 05:30N 37°26' E 025°13'0 0.0
2018-Feb-15 05:00N 37°26' E 025°13'0 0.1
2018-Feb-15 04:30N 37°26' E 025°13'0 0.0
2018-Feb-15 04:00N 37°26' E 025°13'0 0.0
2018-Feb-15 03:30N 37°26' E 025°13'0 0.0
2018-Feb-15 03:00N 37°26' E 025°13'0 0.0
2018-Feb-15 02:30N 37°26' E 025°13'0 0.0
2018-Feb-15 02:00N 37°26' E 025°13'0 0.0
2018-Feb-15 01:30N 37°26' E 025°13'0 0.0
2018-Feb-15 01:00N 37°26' E 025°13'0 0.0
2018-Feb-15 00:30N 37°26' E 025°13'0 0.0
2018-Feb-15 00:00N 37°26' E 025°13'0 0.0
2018-Feb-14 23:30N 37°26' E 025°13'0 0.0
2018-Feb-14 23:00N 37°26' E 025°13'0 0.0
2018-Feb-14 22:30N 37°26' E 025°13'0 0.0
2018-Feb-14 21:57N 37°26' E 025°13'0 0.0
2018-Feb-14 21:30N 37°26' E 025°13'0 0.0
2018-Feb-14 21:00N 37°26' E 025°13'0 0.0
2018-Feb-14 20:30N 37°26' E 025°13'0 0.0
2018-Feb-14 20:00N 37°26' E 025°13'0 0.0
2018-Feb-14 19:30N 37°26' E 025°13'0 0.0
2018-Feb-14 19:00N 37°26' E 025°13'0 0.0
2018-Feb-14 18:30N 37°26' E 025°13'0 0.0
2018-Feb-14 18:00N 37°26' E 025°13'0 0.0
2018-Feb-14 17:30N 37°26' E 025°13'0 0.0
2018-Feb-14 16:57N 37°26' E 025°13'0 0.0
2018-Feb-14 16:27N 37°26' E 025°13'0 0.0
2018-Feb-14 16:00N 37°26' E 025°13'0 0.0
2018-Feb-14 15:30N 37°26' E 025°13'0 0.0
2018-Feb-14 15:00N 37°26' E 025°13'0 0.0
2018-Feb-14 14:30N 37°26' E 025°13'0 0.0
2018-Feb-14 14:00N 37°26' E 025°13'0 0.0
2018-Feb-14 13:30N 37°26' E 025°13'0 0.0
2018-Feb-14 13:00N 37°26' E 025°13'0 0.0
2018-Feb-14 12:30N 37°26' E 025°13'0 0.0
2018-Feb-14 12:00N 37°26' E 025°13'0 0.0
2018-Feb-14 11:30N 37°26' E 025°13'0 0.0
2018-Feb-14 11:00N 37°26' E 025°13'0 0.0
2018-Feb-14 10:30N 37°26' E 025°13'0 0.0
2018-Feb-14 10:00N 37°26' E 025°13'0 0.0
2018-Feb-14 09:30N 37°26' E 025°13'0 0.0
2018-Feb-14 09:00N 37°26' E 025°13'0 0.0
2018-Feb-14 08:30N 37°26' E 025°13'0 0.0
2018-Feb-14 08:00N 37°26' E 025°13'0 0.0
2018-Feb-14 07:30N 37°26' E 025°13'0 0.0
2018-Feb-14 07:00N 37°26' E 025°13'0 0.0
2018-Feb-14 06:21N 37°26' E 025°13'0 0.0
2018-Feb-14 06:00N 37°26' E 025°13'0 0.0
2018-Feb-14 05:30N 37°26' E 025°13'0 0.0
2018-Feb-14 05:00N 37°26' E 025°13'0 0.0
2018-Feb-14 04:30N 37°26' E 025°13'  

Dump ship's entire track history